sensor_id;sensor_type;location;lat;lon;timestamp;pressure;altitude;pressure_sealevel;temperature;humidity
49451;BME280;35336;48.400;10.886;2023-08-07T00:00:10;95956.72;;;10.22;95.34
49451;BME280;35336;48.400;10.886;2023-08-07T00:00:25;95944.25;;;10.23;95.51
49451;BME280;35336;48.400;10.886;2023-08-07T00:00:40;95932.34;;;10.12;96.05
49451;BME280;35336;48.400;10.886;2023-08-07T00:00:55;95934.81;;;10.13;96.23
49451;BME280;35336;48.400;10.886;2023-08-07T00:01:11;95957.97;;;10.26;96.16
49451;BME280;35336;48.400;10.886;2023-08-07T00:01:26;95959.22;;;10.24;96.09
49451;BME280;35336;48.400;10.886;2023-08-07T00:01:41;95947.09;;;10.14;96.00
49451;BME280;35336;48.400;10.886;2023-08-07T00:01:57;95963.28;;;10.20;95.50
49451;BME280;35336;48.400;10.886;2023-08-07T00:02:17;95957.16;;;10.19;95.53
49451;BME280;35336;48.400;10.886;2023-08-07T00:02:34;95944.44;;;10.14;95.42
49451;BME280;35336;48.400;10.886;2023-08-07T00:02:50;95959.19;;;10.17;95.40
49451;BME280;35336;48.400;10.886;2023-08-07T00:03:05;95951.59;;;10.14;95.61
49451;BME280;35336;48.400;10.886;2023-08-07T00:03:20;95954.25;;;10.14;95.60
49451;BME280;35336;48.400;10.886;2023-08-07T00:03:38;95947.31;;;10.13;95.85
49451;BME280;35336;48.400;10.886;2023-08-07T00:03:53;95956.75;;;10.15;96.00
49451;BME280;35336;48.400;10.886;2023-08-07T00:04:08;95946.47;;;10.12;96.31
49451;BME280;35336;48.400;10.886;2023-08-07T00:04:26;95956.75;;;10.15;96.47
49451;BME280;35336;48.400;10.886;2023-08-07T00:04:42;95914.91;;;9.96;96.66
49451;BME280;35336;48.400;10.886;2023-08-07T00:04:59;95943.19;;;10.10;96.57
49451;BME280;35336;48.400;10.886;2023-08-07T00:05:15;95963.72;;;10.16;96.45
49451;BME280;35336;48.400;10.886;2023-08-07T00:05:30;95936.63;;;10.06;96.05
49451;BME280;35336;48.400;10.886;2023-08-07T00:05:46;95945.25;;;9.95;96.20
49451;BME280;35336;48.400;10.886;2023-08-07T00:06:02;95953.44;;;10.13;96.00
49451;BME280;35336;48.400;10.886;2023-08-07T00:06:17;95936.63;;;10.06;95.82
49451;BME280;35336;48.400;10.886;2023-08-07T00:06:32;95968.22;;;10.16;96.58
49451;BME280;35336;48.400;10.886;2023-08-07T00:06:48;95931.72;;;10.03;96.06
49451;BME280;35336;48.400;10.886;2023-08-07T00:07:03;95940.75;;;10.09;95.61
49451;BME280;35336;48.400;10.886;2023-08-07T00:07:18;95956.94;;;10.14;96.29
49451;BME280;35336;48.400;10.886;2023-08-07T00:07:36;95950.78;;;10.13;96.35
49451;BME280;35336;48.400;10.886;2023-08-07T00:07:51;95949.56;;;10.16;96.51
49451;BME280;35336;48.400;10.886;2023-08-07T00:08:06;95953.06;;;10.16;96.76
49451;BME280;35336;48.400;10.886;2023-08-07T00:08:22;95956.53;;;10.17;96.85
49451;BME280;35336;48.400;10.886;2023-08-07T00:08:40;95957.34;;;10.17;96.71
49451;BME280;35336;48.400;10.886;2023-08-07T00:08:55;95949.78;;;10.14;96.34
49451;BME280;35336;48.400;10.886;2023-08-07T00:09:12;95964.09;;;10.13;95.81
49451;BME280;35336;48.400;10.886;2023-08-07T00:09:30;95950.16;;;10.11;95.82
49451;BME280;35336;48.400;10.886;2023-08-07T00:09:45;95953.84;;;10.10;95.72
49451;BME280;35336;48.400;10.886;2023-08-07T00:10:01;95953.44;;;10.13;96.13
49451;BME280;35336;48.400;10.886;2023-08-07T00:10:16;95954.88;;;10.16;96.36
49451;BME280;35336;48.400;10.886;2023-08-07T00:10:34;95959.19;;;10.17;96.95
49451;BME280;35336;48.400;10.886;2023-08-07T00:10:52;95955.50;;;10.18;96.77
49451;BME280;35336;48.400;10.886;2023-08-07T00:11:10;95946.69;;;10.17;96.82
49451;BME280;35336;48.400;10.886;2023-08-07T00:11:25;95966.56;;;10.15;96.60
49451;BME280;35336;48.400;10.886;2023-08-07T00:11:43;95951.19;;;10.17;96.54
49451;BME280;35336;48.400;10.886;2023-08-07T00:11:58;95954.25;;;10.14;96.68
49451;BME280;35336;48.400;10.886;2023-08-07T00:12:14;95954.69;;;10.17;96.37
49451;BME280;35336;48.400;10.886;2023-08-07T00:12:31;95947.91;;;10.15;96.46
49451;BME280;35336;48.400;10.886;2023-08-07T00:12:46;95955.50;;;10.18;96.72
49451;BME280;35336;48.400;10.886;2023-08-07T00:13:04;95951.81;;;10.12;96.38
49451;BME280;35336;48.400;10.886;2023-08-07T00:13:19;95953.44;;;10.13;96.27
49451;BME280;35336;48.400;10.886;2023-08-07T00:13:35;95947.91;;;10.08;96.68
49451;BME280;35336;48.400;10.886;2023-08-07T00:13:50;95962.06;;;10.15;96.46
49451;BME280;35336;48.400;10.886;2023-08-07T00:14:05;95951.81;;;10.12;96.86
49451;BME280;35336;48.400;10.886;2023-08-07T00:14:23;95964.31;;;10.12;96.10
49451;BME280;35336;48.400;10.886;2023-08-07T00:14:41;95954.69;;;10.11;96.41
49451;BME280;35336;48.400;10.886;2023-08-07T00:14:58;95953.84;;;10.04;96.58
49451;BME280;35336;48.400;10.886;2023-08-07T00:15:18;95964.31;;;10.12;96.65
49451;BME280;35336;48.400;10.886;2023-08-07T00:15:36;95945.88;;;10.04;96.66
49451;BME280;35336;48.400;10.886;2023-08-07T00:15:55;95967.78;;;10.12;96.59
49451;BME280;35336;48.400;10.886;2023-08-07T00:16:10;95965.75;;;10.14;96.90
49451;BME280;35336;48.400;10.886;2023-08-07T00:16:25;95964.75;;;10.15;97.03
49451;BME280;35336;48.400;10.886;2023-08-07T00:16:43;95953.63;;;10.05;96.88
49451;BME280;35336;48.400;10.886;2023-08-07T00:16:59;95970.44;;;10.12;96.44
49451;BME280;35336;48.400;10.886;2023-08-07T00:17:16;95969.81;;;10.10;96.34
49451;BME280;35336;48.400;10.886;2023-08-07T00:17:32;95953.44;;;10.00;96.09
49451;BME280;35336;48.400;10.886;2023-08-07T00:17:50;95959.38;;;10.02;96.86
49451;BME280;35336;48.400;10.886;2023-08-07T00:18:08;95968.81;;;10.11;96.45
49451;BME280;35336;48.400;10.886;2023-08-07T00:18:28;95965.13;;;10.06;96.88
49451;BME280;35336;48.400;10.886;2023-08-07T00:18:45;95957.75;;;10.01;96.56
49451;BME280;35336;48.400;10.886;2023-08-07T00:19:02;95960.22;;;10.09;96.41
49451;BME280;35336;48.400;10.886;2023-08-07T00:19:17;95954.88;;;10.02;96.48
49451;BME280;35336;48.400;10.886;2023-08-07T00:19:33;95954.06;;;10.02;96.91
49451;BME280;35336;48.400;10.886;2023-08-07T00:19:48;95967.59;;;10.07;97.17
49451;BME280;35336;48.400;10.886;2023-08-07T00:20:08;95963.91;;;10.08;97.19
49451;BME280;35336;48.400;10.886;2023-08-07T00:20:23;95961.63;;;10.05;97.57
49451;BME280;35336;48.400;10.886;2023-08-07T00:20:41;95971.06;;;10.08;97.50
49451;BME280;35336;48.400;10.886;2023-08-07T00:20:56;95973.94;;;10.06;97.66
49451;BME280;35336;48.400;10.886;2023-08-07T00:21:11;95944.41;;;9.94;97.36
49451;BME280;35336;48.400;10.886;2023-08-07T00:21:27;95965.31;;;10.04;97.43
49451;BME280;35336;48.400;10.886;2023-08-07T00:21:42;95967.38;;;10.02;97.48
49451;BME280;35336;48.400;10.886;2023-08-07T00:21:57;95960.00;;;10.04;97.40
49451;BME280;35336;48.400;10.886;2023-08-07T00:22:13;95977.63;;;10.05;97.33
49451;BME280;35336;48.400;10.886;2023-08-07T00:22:28;95955.25;;;9.99;97.54
49451;BME280;35336;48.400;10.886;2023-08-07T00:22:43;95971.66;;;10.03;97.46
49451;BME280;35336;48.400;10.886;2023-08-07T00:22:58;95972.72;;;10.02;97.61
49451;BME280;35336;48.400;10.886;2023-08-07T00:23:14;95964.50;;;10.04;97.63
49451;BME280;35336;48.400;10.886;2023-08-07T00:23:31;95965.31;;;10.04;97.25
49451;BME280;35336;48.400;10.886;2023-08-07T00:23:49;95971.06;;;10.01;97.07
49451;BME280;35336;48.400;10.886;2023-08-07T00:24:04;95954.47;;;9.99;97.25
49451;BME280;35336;48.400;10.886;2023-08-07T00:24:20;95965.53;;;10.02;97.80
49451;BME280;35336;48.400;10.886;2023-08-07T00:24:37;95948.09;;;10.00;97.58
49451;BME280;35336;48.400;10.886;2023-08-07T00:24:52;95963.25;;;9.93;97.11
49451;BME280;35336;48.400;10.886;2023-08-07T00:25:08;95964.72;;;10.02;97.14
49451;BME280;35336;48.400;10.886;2023-08-07T00:25:26;95971.88;;;10.01;97.06
49451;BME280;35336;48.400;10.886;2023-08-07T00:25:41;95963.47;;;9.98;97.31
49451;BME280;35336;48.400;10.886;2023-08-07T00:25:56;95955.25;;;9.93;97.44
49451;BME280;35336;48.400;10.886;2023-08-07T00:26:11;95958.97;;;9.98;97.51
49451;BME280;35336;48.400;10.886;2023-08-07T00:26:27;95965.53;;;10.02;97.66
49451;BME280;35336;48.400;10.886;2023-08-07T00:26:42;95967.16;;;10.04;97.92
49451;BME280;35336;48.400;10.886;2023-08-07T00:27:00;95961.63;;;10.05;98.18
49451;BME280;35336;48.400;10.886;2023-08-07T00:27:15;95940.94;;;9.94;98.18
49451;BME280;35336;48.400;10.886;2023-08-07T00:27:30;95956.31;;;10.05;98.22
49451;BME280;35336;48.400;10.886;2023-08-07T00:27:45;95953.22;;;9.95;98.09
49451;BME280;35336;48.400;10.886;2023-08-07T00:28:03;95967.97;;;10.04;98.27
49451;BME280;35336;48.400;10.886;2023-08-07T00:28:18;95966.53;;;9.95;97.96
49451;BME280;35336;48.400;10.886;2023-08-07T00:28:38;95938.25;;;9.87;97.85
49451;BME280;35336;48.400;10.886;2023-08-07T00:28:54;95952.59;;;9.93;97.98
49451;BME280;35336;48.400;10.886;2023-08-07T00:29:11;95968.19;;;10.02;98.17
49451;BME280;35336;48.400;10.886;2023-08-07T00:29:27;95955.06;;;9.94;98.04
49451;BME280;35336;48.400;10.886;2023-08-07T00:29:47;95970.22;;;10.00;97.71
49451;BME280;35336;48.400;10.886;2023-08-07T00:30:05;95972.72;;;10.02;97.48
49451;BME280;35336;48.400;10.886;2023-08-07T00:30:20;95968.41;;;10.01;97.66
49451;BME280;35336;48.400;10.886;2023-08-07T00:30:40;95943.78;;;9.92;97.97
49451;BME280;35336;48.400;10.886;2023-08-07T00:30:56;95972.09;;;10.00;98.00
49451;BME280;35336;48.400;10.886;2023-08-07T00:31:11;95948.72;;;9.95;98.32
49451;BME280;35336;48.400;10.886;2023-08-07T00:31:29;95962.44;;;9.99;97.92
49451;BME280;35336;48.400;10.886;2023-08-07T00:31:44;95961.63;;;10.05;97.79
49451;BME280;35336;48.400;10.886;2023-08-07T00:32:01;95964.50;;;10.04;98.05
49451;BME280;35336;48.400;10.886;2023-08-07T00:32:17;95977.00;;;10.03;97.96
49451;BME280;35336;48.400;10.886;2023-08-07T00:32:32;95971.88;;;10.01;97.68
49451;BME280;35336;48.400;10.886;2023-08-07T00:32:50;95971.44;;;9.98;97.82
49451;BME280;35336;48.400;10.886;2023-08-07T00:33:05;95964.72;;;10.02;97.52
49451;BME280;35336;48.400;10.886;2023-08-07T00:33:22;95967.38;;;10.02;97.66
49451;BME280;35336;48.400;10.886;2023-08-07T00:33:38;95967.56;;;10.00;97.91
49451;BME280;35336;48.400;10.886;2023-08-07T00:33:53;95964.09;;;10.00;97.57
49451;BME280;35336;48.400;10.886;2023-08-07T00:34:10;95955.06;;;9.94;97.87
49451;BME280;35336;48.400;10.886;2023-08-07T00:34:26;95953.22;;;9.95;98.31
49451;BME280;35336;48.400;10.886;2023-08-07T00:34:43;95956.31;;;9.98;98.31
49451;BME280;35336;48.400;10.886;2023-08-07T00:34:58;95951.16;;;9.97;98.38
49451;BME280;35336;48.400;10.886;2023-08-07T00:35:16;95954.25;;;10.00;98.11
49451;BME280;35336;48.400;10.886;2023-08-07T00:35:32;95969.00;;;10.03;98.37
49451;BME280;35336;48.400;10.886;2023-08-07T00:35:47;95957.50;;;9.96;98.54
49451;BME280;35336;48.400;10.886;2023-08-07T00:36:02;95958.13;;;9.98;98.43
49451;BME280;35336;48.400;10.886;2023-08-07T00:36:18;95967.38;;;10.02;98.87
49451;BME280;35336;48.400;10.886;2023-08-07T00:36:33;95972.28;;;10.05;98.88
49451;BME280;35336;48.400;10.886;2023-08-07T00:36:48;95961.00;;;10.03;98.79
49451;BME280;35336;48.400;10.886;2023-08-07T00:37:04;95960.41;;;10.01;98.69
49451;BME280;35336;48.400;10.886;2023-08-07T00:37:23;95958.75;;;10.00;98.17
49451;BME280;35336;48.400;10.886;2023-08-07T00:37:39;95966.53;;;10.01;98.39
49451;BME280;35336;48.400;10.886;2023-08-07T00:37:54;95968.56;;;9.99;98.67
49451;BME280;35336;48.400;10.886;2023-08-07T00:38:09;95957.94;;;9.93;98.93
49451;BME280;35336;48.400;10.886;2023-08-07T00:38:29;95968.78;;;9.91;99.27
49451;BME280;35336;48.400;10.886;2023-08-07T00:38:48;95957.34;;;9.97;98.76
49451;BME280;35336;48.400;10.886;2023-08-07T00:39:03;95970.22;;;10.00;98.70
49451;BME280;35336;48.400;10.886;2023-08-07T00:39:18;95969.00;;;10.03;98.54
49451;BME280;35336;48.400;10.886;2023-08-07T00:39:33;95971.88;;;10.01;98.77
49451;BME280;35336;48.400;10.886;2023-08-07T00:39:51;95970.03;;;10.02;98.67
49451;BME280;35336;48.400;10.886;2023-08-07T00:40:07;95957.50;;;9.96;98.40
49451;BME280;35336;48.400;10.886;2023-08-07T00:40:25;95977.63;;;10.05;98.83
49451;BME280;35336;48.400;10.886;2023-08-07T00:40:40;95968.41;;;10.01;98.71
49451;BME280;35336;48.400;10.886;2023-08-07T00:40:56;95973.72;;;10.01;98.58
49451;BME280;35336;48.400;10.886;2023-08-07T00:41:11;95968.56;;;9.99;98.58
49451;BME280;35336;48.400;10.886;2023-08-07T00:41:26;95960.00;;;9.97;98.66
49451;BME280;35336;48.400;10.886;2023-08-07T00:41:42;95971.06;;;10.01;98.82
49451;BME280;35336;48.400;10.886;2023-08-07T00:41:59;95964.31;;;9.98;99.01
49451;BME280;35336;48.400;10.886;2023-08-07T00:42:14;95960.81;;;9.98;98.83
49451;BME280;35336;48.400;10.886;2023-08-07T00:42:29;95962.66;;;9.97;99.19
49451;BME280;35336;48.400;10.886;2023-08-07T00:42:45;95961.63;;;9.98;99.47
49451;BME280;35336;48.400;10.886;2023-08-07T00:43:00;95966.53;;;10.01;99.45
49451;BME280;35336;48.400;10.886;2023-08-07T00:43:15;95952.19;;;9.96;99.43
49451;BME280;35336;48.400;10.886;2023-08-07T00:43:30;95962.06;;;10.02;99.53
49451;BME280;35336;48.400;10.886;2023-08-07T00:43:48;95962.06;;;10.02;99.49
49451;BME280;35336;48.400;10.886;2023-08-07T00:44:03;95948.28;;;9.92;99.11
49451;BME280;35336;48.400;10.886;2023-08-07T00:44:21;95967.56;;;10.00;98.71
49451;BME280;35336;48.400;10.886;2023-08-07T00:44:38;95961.22;;;9.95;98.51
49451;BME280;35336;48.400;10.886;2023-08-07T00:44:56;95965.09;;;9.99;98.79
49451;BME280;35336;48.400;10.886;2023-08-07T00:45:11;95961.41;;;9.93;98.55
49451;BME280;35336;48.400;10.886;2023-08-07T00:45:29;95970.66;;;9.97;98.72
49451;BME280;35336;48.400;10.886;2023-08-07T00:45:46;95959.38;;;9.95;99.06
49451;BME280;35336;48.400;10.886;2023-08-07T00:46:02;95971.06;;;10.01;99.21
49451;BME280;35336;48.400;10.886;2023-08-07T00:46:18;95953.66;;;9.98;100.00
49451;BME280;35336;48.400;10.886;2023-08-07T00:46:34;95954.47;;;9.99;100.00
49451;BME280;35336;48.400;10.886;2023-08-07T00:46:51;95952.19;;;9.96;100.00
49451;BME280;35336;48.400;10.886;2023-08-07T00:47:07;95955.47;;;9.98;99.67
49451;BME280;35336;48.400;10.886;2023-08-07T00:47:25;95953.22;;;9.95;100.00
49451;BME280;35336;48.400;10.886;2023-08-07T00:47:43;95939.06;;;9.88;99.93
49451;BME280;35336;48.400;10.886;2023-08-07T00:47:59;95964.09;;;10.00;100.00
49451;BME280;35336;48.400;10.886;2023-08-07T00:48:16;95938.03;;;9.82;99.52
49451;BME280;35336;48.400;10.886;2023-08-07T00:48:31;95967.59;;;10.07;99.74
49451;BME280;35336;48.400;10.886;2023-08-07T00:48:47;95963.66;;;10.03;100.00
49451;BME280;35336;48.400;10.886;2023-08-07T00:49:05;95947.47;;;9.98;99.57
49451;BME280;35336;48.400;10.886;2023-08-07T00:49:21;95963.88;;;10.01;99.17
49451;BME280;35336;48.400;10.886;2023-08-07T00:49:39;95960.00;;;10.04;98.75
49451;BME280;35336;48.400;10.886;2023-08-07T00:49:58;95959.78;;;9.99;99.18
49451;BME280;35336;48.400;10.886;2023-08-07T00:50:16;95967.97;;;10.04;99.02
49451;BME280;35336;48.400;10.886;2023-08-07T00:50:32;95979.25;;;10.06;99.41
49451;BME280;35336;48.400;10.886;2023-08-07T00:50:48;95964.91;;;10.00;99.37
49451;BME280;35336;48.400;10.886;2023-08-07T00:51:04;95960.00;;;10.04;99.22
49451;BME280;35336;48.400;10.886;2023-08-07T00:51:20;95963.50;;;10.05;99.56
49451;BME280;35336;48.400;10.886;2023-08-07T00:51:36;95966.16;;;10.05;99.22
49451;BME280;35336;48.400;10.886;2023-08-07T00:51:52;95958.34;;;10.03;99.28
49451;BME280;35336;48.400;10.886;2023-08-07T00:52:08;95955.09;;;10.01;99.19
49451;BME280;35336;48.400;10.886;2023-08-07T00:52:25;95965.31;;;10.04;99.58
49451;BME280;35336;48.400;10.886;2023-08-07T00:52:40;95958.34;;;10.03;99.77
49451;BME280;35336;48.400;10.886;2023-08-07T00:52:56;95959.81;;;10.06;99.80
49451;BME280;35336;48.400;10.886;2023-08-07T00:53:14;95964.28;;;10.05;99.65
49451;BME280;35336;48.400;10.886;2023-08-07T00:53:31;95953.03;;;9.96;99.71
49451;BME280;35336;48.400;10.886;2023-08-07T00:53:51;95958.56;;;10.01;99.65
49451;BME280;35336;48.400;10.886;2023-08-07T00:54:07;95960.41;;;10.08;99.85
49451;BME280;35336;48.400;10.886;2023-08-07T00:54:25;95953.44;;;10.00;99.98
49451;BME280;35336;48.400;10.886;2023-08-07T00:54:41;95966.97;;;10.05;100.00
49451;BME280;35336;48.400;10.886;2023-08-07T00:54:57;95955.25;;;9.93;99.94
49451;BME280;35336;48.400;10.886;2023-08-07T00:55:12;95961.84;;;10.04;99.76
49451;BME280;35336;48.400;10.886;2023-08-07T00:55:32;95981.50;;;10.02;99.82
49451;BME280;35336;48.400;10.886;2023-08-07T00:55:50;95951.34;;;9.89;99.11
49451;BME280;35336;48.400;10.886;2023-08-07T00:56:09;95967.78;;;9.99;99.36
49451;BME280;35336;48.400;10.886;2023-08-07T00:56:25;95960.81;;;9.98;99.27
49451;BME280;35336;48.400;10.886;2023-08-07T00:56:43;95971.44;;;9.98;99.47
49451;BME280;35336;48.400;10.886;2023-08-07T00:57:10;95947.66;;;9.90;99.42
49451;BME280;35336;48.400;10.886;2023-08-07T00:57:25;95962.88;;;10.02;99.86
49451;BME280;35336;48.400;10.886;2023-08-07T00:57:41;95959.56;;;10.00;99.91
49451;BME280;35336;48.400;10.886;2023-08-07T00:58:00;95968.56;;;9.99;99.65
49451;BME280;35336;48.400;10.886;2023-08-07T00:58:15;95970.44;;;9.99;99.63
49451;BME280;35336;48.400;10.886;2023-08-07T00:58:33;95965.31;;;9.97;99.72
49451;BME280;35336;48.400;10.886;2023-08-07T00:58:49;95960.00;;;9.97;99.70
49451;BME280;35336;48.400;10.886;2023-08-07T00:59:04;95962.44;;;9.99;99.71
49451;BME280;35336;48.400;10.886;2023-08-07T00:59:20;95952.19;;;9.96;99.95
49451;BME280;35336;48.400;10.886;2023-08-07T00:59:36;95956.50;;;9.90;100.00
49451;BME280;35336;48.400;10.886;2023-08-07T00:59:52;95956.91;;;10.00;100.00
49451;BME280;35336;48.400;10.886;2023-08-07T01:00:08;95953.63;;;9.92;99.95
49451;BME280;35336;48.400;10.886;2023-08-07T01:00:27;95965.75;;;10.01;100.00
49451;BME280;35336;48.400;10.886;2023-08-07T01:00:43;95962.88;;;10.02;99.97
49451;BME280;35336;48.400;10.886;2023-08-07T01:00:59;95971.06;;;10.01;100.00
49451;BME280;35336;48.400;10.886;2023-08-07T01:01:15;95965.75;;;10.01;100.00
49451;BME280;35336;48.400;10.886;2023-08-07T01:01:32;95952.41;;;9.94;99.87
49451;BME280;35336;48.400;10.886;2023-08-07T01:01:48;95953.44;;;10.00;100.00
49451;BME280;35336;48.400;10.886;2023-08-07T01:02:04;95965.31;;;10.04;100.00
49451;BME280;35336;48.400;10.886;2023-08-07T01:02:22;95956.50;;;10.04;100.00
49451;BME280;35336;48.400;10.886;2023-08-07T01:02:37;95964.09;;;10.07;100.00
49451;BME280;35336;48.400;10.886;2023-08-07T01:02:54;95952.63;;;10.06;100.00
49451;BME280;35336;48.400;10.886;2023-08-07T01:03:15;95947.28;;;10.06;100.00
49451;BME280;35336;48.400;10.886;2023-08-07T01:03:33;95938.28;;;9.94;99.90
49451;BME280;35336;48.400;10.886;2023-08-07T01:03:51;95961.63;;;10.05;100.00
49451;BME280;35336;48.400;10.886;2023-08-07T01:04:06;95952.00;;;10.04;100.00
49451;BME280;35336;48.400;10.886;2023-08-07T01:04:21;95958.34;;;10.03;100.00
49451;BME280;35336;48.400;10.886;2023-08-07T01:04:37;95955.09;;;10.01;100.00
49451;BME280;35336;48.400;10.886;2023-08-07T01:04:56;95954.06;;;10.02;100.00
49451;BME280;35336;48.400;10.886;2023-08-07T01:05:11;95950.56;;;9.95;100.00
49451;BME280;35336;48.400;10.886;2023-08-07T01:05:29;95955.47;;;9.98;99.84
49451;BME280;35336;48.400;10.886;2023-08-07T01:05:44;95957.13;;;9.99;99.68
49451;BME280;35336;48.400;10.886;2023-08-07T01:06:01;95956.50;;;9.97;99.75
49451;BME280;35336;48.400;10.886;2023-08-07T01:06:19;95967.56;;;10.00;99.98
49451;BME280;35336;48.400;10.886;2023-08-07T01:06:36;95966.13;;;9.98;99.86
49451;BME280;35336;48.400;10.886;2023-08-07T01:06:51;95972.09;;;10.00;100.00
49451;BME280;35336;48.400;10.886;2023-08-07T01:07:09;95964.91;;;10.00;100.00
49451;BME280;35336;48.400;10.886;2023-08-07T01:08:04;95957.94;;;9.99;100.00
49451;BME280;35336;48.400;10.886;2023-08-07T01:08:20;95966.75;;;10.00;99.95
49451;BME280;35336;48.400;10.886;2023-08-07T01:08:40;95978.22;;;10.00;100.00
49451;BME280;35336;48.400;10.886;2023-08-07T01:08:56;95966.97;;;9.98;99.78
49451;BME280;35336;48.400;10.886;2023-08-07T01:09:14;95978.44;;;9.99;99.37
49451;BME280;35336;48.400;10.886;2023-08-07T01:09:30;95943.78;;;9.85;99.08
49451;BME280;35336;48.400;10.886;2023-08-07T01:09:45;95961.41;;;9.93;99.26
49451;BME280;35336;48.400;10.886;2023-08-07T01:10:01;95980.06;;;10.00;99.00
49451;BME280;35336;48.400;10.886;2023-08-07T01:10:19;95963.25;;;9.99;98.78
49451;BME280;35336;48.400;10.886;2023-08-07T01:11:44;95969.63;;;10.05;98.61
49451;BME280;35336;48.400;10.886;2023-08-07T01:12:20;95968.59;;;10.06;99.14
49451;BME280;35336;48.400;10.886;2023-08-07T01:12:44;95954.25;;;9.94;98.58
49451;BME280;35336;48.400;10.886;2023-08-07T01:13:13;95971.47;;;10.05;98.68
49451;BME280;35336;48.400;10.886;2023-08-07T01:14:15;95959.19;;;10.04;98.50
49451;BME280;35336;48.400;10.886;2023-08-07T01:14:41;95962.88;;;10.02;98.34
49451;BME280;35336;48.400;10.886;2023-08-07T01:15:10;95949.31;;;9.91;98.12
49451;BME280;35336;48.400;10.886;2023-08-07T01:15:30;95960.81;;;9.98;98.18
49451;BME280;35336;48.400;10.886;2023-08-07T01:15:47;95952.19;;;9.96;98.23
49451;BME280;35336;48.400;10.886;2023-08-07T01:16:11;95964.91;;;10.00;98.36
49451;BME280;35336;48.400;10.886;2023-08-07T01:16:45;95964.09;;;10.00;98.00
49451;BME280;35336;48.400;10.886;2023-08-07T01:17:09;95970.22;;;10.00;98.14
49451;BME280;35336;48.400;10.886;2023-08-07T01:17:25;95964.91;;;10.00;97.99
49451;BME280;35336;48.400;10.886;2023-08-07T01:17:44;95964.09;;;10.00;98.29
49451;BME280;35336;48.400;10.886;2023-08-07T01:17:59;95962.44;;;9.99;98.30
49451;BME280;35336;48.400;10.886;2023-08-07T01:18:17;95945.22;;;9.88;98.40
49451;BME280;35336;48.400;10.886;2023-08-07T01:18:38;95965.91;;;9.99;98.23
49451;BME280;35336;48.400;10.886;2023-08-07T01:18:53;95952.38;;;9.88;98.04
49451;BME280;35336;48.400;10.886;2023-08-07T01:19:19;95971.25;;;9.99;97.83
49451;BME280;35336;48.400;10.886;2023-08-07T01:19:41;95961.44;;;10.00;98.03
49451;BME280;35336;48.400;10.886;2023-08-07T01:20:01;95962.44;;;9.99;98.07
49451;BME280;35336;48.400;10.886;2023-08-07T01:20:16;95980.88;;;10.00;98.09
49451;BME280;35336;48.400;10.886;2023-08-07T01:20:34;95957.31;;;9.91;97.89
49451;BME280;35336;48.400;10.886;2023-08-07T01:20:50;95963.06;;;10.01;97.26
49451;BME280;35336;48.400;10.886;2023-08-07T01:21:06;95973.72;;;10.01;97.28
49451;BME280;35336;48.400;10.886;2023-08-07T01:21:21;95972.72;;;10.02;96.89
49451;BME280;35336;48.400;10.886;2023-08-07T01:21:39;95961.63;;;9.98;96.83
49451;BME280;35336;48.400;10.886;2023-08-07T01:22:11;95965.31;;;10.04;96.80
49451;BME280;35336;48.400;10.886;2023-08-07T01:22:26;95971.06;;;10.08;96.84
49451;BME280;35336;48.400;10.886;2023-08-07T01:22:41;95968.59;;;10.06;97.11
49451;BME280;35336;48.400;10.886;2023-08-07T01:22:59;95968.41;;;10.08;96.97
49451;BME280;35336;48.400;10.886;2023-08-07T01:23:14;95969.22;;;10.08;97.37
49451;BME280;35336;48.400;10.886;2023-08-07T01:23:29;95969.03;;;10.10;97.29
49451;BME280;35336;48.400;10.886;2023-08-07T01:23:46;95966.34;;;10.10;97.50
49451;BME280;35336;48.400;10.886;2023-08-07T01:24:02;95970.88;;;10.09;97.50
49451;BME280;35336;48.400;10.886;2023-08-07T01:24:19;95974.56;;;10.08;97.76
49451;BME280;35336;48.400;10.886;2023-08-07T01:24:36;95971.69;;;10.10;97.38
49451;BME280;35336;48.400;10.886;2023-08-07T01:24:51;95971.91;;;10.08;96.98
49451;BME280;35336;48.400;10.886;2023-08-07T01:25:09;95967.38;;;10.02;96.83
49451;BME280;35336;48.400;10.886;2023-08-07T01:25:24;95962.25;;;10.07;96.98
49451;BME280;35336;48.400;10.886;2023-08-07T01:25:40;95958.13;;;9.98;96.18
49451;BME280;35336;48.400;10.886;2023-08-07T01:25:55;95991.56;;;10.07;96.29
49451;BME280;35336;48.400;10.886;2023-08-07T01:26:10;95965.91;;;9.99;96.41
49451;BME280;35336;48.400;10.886;2023-08-07T01:26:29;95967.59;;;10.07;96.70
49451;BME280;35336;48.400;10.886;2023-08-07T01:26:48;95975.56;;;10.07;96.86
49451;BME280;35336;48.400;10.886;2023-08-07T01:27:35;95968.22;;;10.09;97.15
49451;BME280;35336;48.400;10.886;2023-08-07T01:28:06;95968.41;;;10.08;96.60
49451;BME280;35336;48.400;10.886;2023-08-07T01:28:27;95970.88;;;10.09;96.84
49451;BME280;35336;48.400;10.886;2023-08-07T01:28:51;95980.47;;;10.10;96.57
49451;BME280;35336;48.400;10.886;2023-08-07T01:29:17;95980.91;;;10.07;96.37
49451;BME280;35336;48.400;10.886;2023-08-07T01:30:26;95971.06;;;10.08;96.54
49451;BME280;35336;48.400;10.886;2023-08-07T01:30:50;95978.03;;;10.09;96.32
49451;BME280;35336;48.400;10.886;2023-08-07T01:31:11;95960.81;;;9.98;95.68
49451;BME280;35336;48.400;10.886;2023-08-07T01:31:31;95981.94;;;10.06;95.14
49451;BME280;35336;48.400;10.886;2023-08-07T01:31:49;95974.75;;;10.07;95.36
49451;BME280;35336;48.400;10.886;2023-08-07T01:32:09;95956.31;;;9.98;95.79
49451;BME280;35336;48.400;10.886;2023-08-07T01:32:30;95985.41;;;10.07;95.59
49451;BME280;35336;48.400;10.886;2023-08-07T01:33:19;95977.00;;;10.10;95.85
49451;BME280;35336;48.400;10.886;2023-08-07T01:33:53;95977.81;;;10.10;96.11
49451;BME280;35336;48.400;10.886;2023-08-07T01:34:11;95979.69;;;10.10;95.44
49451;BME280;35336;48.400;10.886;2023-08-07T01:34:28;95971.06;;;10.01;95.33